createdAt,value
2022-09-28T00:00:23.722Z,1.50
2022-09-28T00:02:51.045Z,1.30
2022-09-28T00:05:18.435Z,1.33
2022-09-28T00:07:46.973Z,1.33
2022-09-28T00:10:14.607Z,1.33
2022-09-28T00:12:41.820Z,1.20
2022-09-28T00:15:09.423Z,1.27
2022-09-28T00:17:36.606Z,1.47
2022-09-28T00:20:03.930Z,1.50
2022-09-28T00:22:31.194Z,1.13
2022-09-28T00:24:59.706Z,1.20
2022-09-28T00:27:26.911Z,1.23
2022-09-28T00:29:54.175Z,1.20
2022-09-28T00:32:21.372Z,1.23
2022-09-28T00:34:48.567Z,1.33
2022-09-28T00:37:15.926Z,1.67
2022-09-28T00:39:43.385Z,1.40
2022-09-28T00:42:13.631Z,1.10
2022-09-28T00:44:43.844Z,1.57
2022-09-28T00:47:25.916Z,1.30
2022-09-28T00:49:55.630Z,1.43
2022-09-28T00:52:25.105Z,1.30
2022-09-28T00:54:53.489Z,1.40
2022-09-28T00:57:22.919Z,1.40
2022-09-28T00:59:50.947Z,1.53
2022-09-28T01:02:18.276Z,1.60
2022-09-28T01:04:45.571Z,1.30
2022-09-28T01:07:12.919Z,1.57
2022-09-28T01:09:40.373Z,1.50
2022-09-28T01:12:08.527Z,1.10
2022-09-28T01:14:37.082Z,1.50
2022-09-28T01:17:07.960Z,1.77
2022-09-28T01:20:05.367Z,1.37
2022-09-28T01:22:40.589Z,1.53
2022-09-28T01:25:10.845Z,1.97
2022-09-28T01:27:40.525Z,1.40
2022-09-28T01:30:09.069Z,1.60
2022-09-28T01:32:39.340Z,1.67
2022-09-28T01:35:09.503Z,1.70
2022-09-28T01:37:40.617Z,1.57
2022-09-28T01:40:10.346Z,1.40
2022-09-28T01:42:39.698Z,1.50
2022-09-28T01:45:16.973Z,1.23
2022-09-28T01:47:46.226Z,1.40
2022-09-28T01:50:15.067Z,1.43
2022-09-28T01:52:46.199Z,1.50
2022-09-28T01:55:14.831Z,1.60
2022-09-28T01:57:44.734Z,1.27
2022-09-28T02:00:16.518Z,1.50
2022-09-28T02:02:48.355Z,1.30
2022-09-28T02:05:20.653Z,1.13
2022-09-28T02:07:50.967Z,1.40
2022-09-28T02:10:20.706Z,1.37
2022-09-28T02:12:59.631Z,1.83
2022-09-28T02:15:31.733Z,1.60
2022-09-28T02:18:00.541Z,1.60
2022-09-28T02:20:29.722Z,1.93
2022-09-28T02:22:57.183Z,2.10
2022-09-28T02:25:28.943Z,1.30
2022-09-28T02:30:23.676Z,1.33
2022-09-28T02:32:54.595Z,1.57
2022-09-28T02:35:22.658Z,1.53
2022-09-28T02:37:50.568Z,1.17
2022-09-28T02:40:18.964Z,1.63
2022-09-28T02:42:54.004Z,1.40
2022-09-28T02:45:30.617Z,0.93
2022-09-28T02:48:03.426Z,1.37
2022-09-28T02:50:36.591Z,1.30
2022-09-28T02:53:12.685Z,1.30
2022-09-28T02:55:44.918Z,1.33
2022-09-28T02:58:19.671Z,1.30
2022-09-28T03:00:53.741Z,1.30
2022-09-28T03:03:26.326Z,1.40
2022-09-28T03:05:58.791Z,1.37
2022-09-28T03:08:28.502Z,1.27
2022-09-28T03:10:59.582Z,1.40
2022-09-28T03:13:27.755Z,1.60
2022-09-28T03:16:06.317Z,1.20
2022-09-28T03:18:35.068Z,1.10
2022-09-28T03:21:02.457Z,1.53
2022-09-28T03:23:29.746Z,1.30
2022-09-28T03:25:57.018Z,1.30
2022-09-28T03:28:24.640Z,1.40
2022-09-28T03:30:52.542Z,1.20
2022-09-28T03:33:19.997Z,1.20
2022-09-28T03:35:48.971Z,1.30
2022-09-28T03:38:16.641Z,1.40
2022-09-28T03:40:44.018Z,1.50
2022-09-28T03:43:11.534Z,1.30
2022-09-28T03:45:39.115Z,1.30
2022-09-28T03:48:11.839Z,1.30
2022-09-28T03:50:39.085Z,1.00
2022-09-28T03:53:07.659Z,1.57
2022-09-28T03:55:34.849Z,1.50
2022-09-28T03:58:02.181Z,1.30
2022-09-28T04:00:30.076Z,1.50
2022-09-28T04:02:57.701Z,1.33
2022-09-28T04:05:26.077Z,1.90
2022-09-28T04:07:54.839Z,1.10
2022-09-28T04:10:23.464Z,1.30
2022-09-28T04:12:50.695Z,1.60
2022-09-28T04:15:18.005Z,1.10
2022-09-28T04:17:45.259Z,1.40
2022-09-28T04:20:26.638Z,1.40
2022-09-28T04:23:01.417Z,1.50
2022-09-28T04:25:30.621Z,1.30
2022-09-28T04:27:58.429Z,1.40
2022-09-28T04:30:25.705Z,1.30
2022-09-28T04:32:53.145Z,1.50
2022-09-28T04:35:20.739Z,1.93
2022-09-28T04:37:48.102Z,1.63
2022-09-28T04:40:15.913Z,1.20
2022-09-28T04:42:44.739Z,1.40
2022-09-28T04:45:11.955Z,1.40
2022-09-28T04:47:43.287Z,1.20
2022-09-28T04:50:10.637Z,1.47
2022-09-28T04:52:57.861Z,1.40
2022-09-28T04:55:25.161Z,1.20
2022-09-28T04:57:53.694Z,1.00
2022-09-28T05:00:20.933Z,1.40
2022-09-28T05:03:03.378Z,1.30
2022-09-28T05:06:02.374Z,1.83
2022-09-28T05:08:39.586Z,1.47
2022-09-28T05:11:07.722Z,1.30
2022-09-28T05:13:40.060Z,1.30
2022-09-28T05:16:07.527Z,1.40
2022-09-28T05:18:41.007Z,1.40
2022-09-28T05:21:10.501Z,1.50
2022-09-28T05:23:37.728Z,1.57
2022-09-28T05:26:05.015Z,1.33
2022-09-28T05:28:33.180Z,1.33
2022-09-28T05:31:20.367Z,1.50
2022-09-28T05:34:03.356Z,1.10
2022-09-28T05:36:30.654Z,1.87
2022-09-28T05:38:57.891Z,1.70
2022-09-28T05:41:25.199Z,1.70
2022-09-28T05:43:52.441Z,1.17
2022-09-28T05:46:21.119Z,1.47
2022-09-28T05:48:49.011Z,1.77
2022-09-28T05:51:16.318Z,1.40
2022-09-28T05:53:43.518Z,1.77
2022-09-28T05:56:11.017Z,2.07
2022-09-28T05:58:42.723Z,1.60
2022-09-28T06:01:11.468Z,1.63
2022-09-28T06:03:40.476Z,1.40
2022-09-28T06:06:07.874Z,1.53
2022-09-28T06:08:35.962Z,1.60
2022-09-28T06:11:27.843Z,1.50
2022-09-28T06:13:57.220Z,1.30
2022-09-28T06:16:27.480Z,1.43
2022-09-28T06:18:56.059Z,1.50
2022-09-28T06:21:35.822Z,1.50
2022-09-28T06:24:03.162Z,1.87
2022-09-28T06:26:30.683Z,1.90
2022-09-28T06:28:58.082Z,1.87
2022-09-28T06:31:25.315Z,1.70
2022-09-28T06:33:55.806Z,2.17
2022-09-28T06:36:23.406Z,1.70
2022-09-28T06:38:50.646Z,2.40
2022-09-28T06:41:17.986Z,1.70
2022-09-28T06:43:45.935Z,1.60
2022-09-28T06:46:13.294Z,1.50
2022-09-28T06:49:00.126Z,2.27
2022-09-28T06:51:56.351Z,1.77
2022-09-28T06:54:40.293Z,1.77
2022-09-28T06:57:24.311Z,2.07
2022-09-28T06:59:53.710Z,1.40
2022-09-28T07:02:22.188Z,1.80
2022-09-28T07:05:12.640Z,2.00
2022-09-28T07:08:02.728Z,1.83
2022-09-28T07:11:05.671Z,2.50
2022-09-28T07:13:50.781Z,1.77
2022-09-28T07:16:26.434Z,2.03
2022-09-28T07:18:55.283Z,2.03
2022-09-28T07:21:29.874Z,2.50
2022-09-28T07:24:00.383Z,1.83
2022-09-28T07:26:50.678Z,2.63
2022-09-28T07:29:32.385Z,2.00
2022-09-28T07:35:36.340Z,1.90
2022-09-28T07:38:06.287Z,1.60
2022-09-28T07:40:40.072Z,3.03
2022-09-28T07:43:08.691Z,2.60
2022-09-28T07:45:45.897Z,1.70
2022-09-28T07:48:13.377Z,1.33
2022-09-28T07:50:51.559Z,1.50
2022-09-28T07:53:35.246Z,1.20
2022-09-28T07:56:25.222Z,1.60
2022-09-28T07:59:00.606Z,1.67
2022-09-28T08:01:39.614Z,1.53
2022-09-28T08:04:09.049Z,1.43
2022-09-28T08:06:37.299Z,1.20
2022-09-28T08:09:07.523Z,1.10
2022-09-28T08:11:53.343Z,1.77
2022-09-28T08:14:55.923Z,1.47
2022-09-28T08:17:29.309Z,1.10
2022-09-28T08:19:59.554Z,1.37
2022-09-28T08:22:26.764Z,1.43
2022-09-28T08:24:57.712Z,1.47
2022-09-28T08:27:24.963Z,1.40
2022-09-28T08:29:52.168Z,1.40
2022-09-28T08:32:37.746Z,1.30
2022-09-28T08:35:27.890Z,1.30
2022-09-28T08:38:11.482Z,1.90
2022-09-28T08:41:06.106Z,1.83
2022-09-28T08:44:20.695Z,1.30
2022-09-28T08:47:15.514Z,1.30
2022-09-28T08:49:51.328Z,1.50
2022-09-28T08:52:32.242Z,1.13
2022-09-28T08:55:26.638Z,1.33
2022-09-28T08:57:58.510Z,1.23
2022-09-28T09:00:31.900Z,1.23
2022-09-28T09:02:59.301Z,0.90
2022-09-28T09:05:38.867Z,1.30
2022-09-28T09:08:16.708Z,1.13
2022-09-28T09:10:49.366Z,1.10
2022-09-28T09:13:38.154Z,1.30
2022-09-28T09:16:16.764Z,1.70
2022-09-28T09:19:05.299Z,1.20
2022-09-28T09:21:42.496Z,1.80
2022-09-28T09:24:17.395Z,1.50
2022-09-28T09:27:03.625Z,2.03
2022-09-28T09:29:55.710Z,1.43
2022-09-28T09:32:29.337Z,1.53
2022-09-28T09:35:08.302Z,1.30
2022-09-28T09:38:08.689Z,1.20
2022-09-28T09:41:05.296Z,1.17
2022-09-28T09:46:41.620Z,1.10
2022-09-28T09:49:31.518Z,1.20
2022-09-28T09:52:01.909Z,1.17
2022-09-28T09:54:33.883Z,1.13
2022-09-28T09:57:03.646Z,1.10
2022-09-28T09:59:48.143Z,1.17
2022-09-28T10:02:36.937Z,1.30
2022-09-28T10:05:19.291Z,1.87
2022-09-28T10:07:48.485Z,1.57
2022-09-28T10:10:18.522Z,1.37
2022-09-28T10:12:50.213Z,1.27
2022-09-28T10:15:21.091Z,1.27
2022-09-28T10:18:04.054Z,1.30
2022-09-28T10:20:49.575Z,1.40
2022-09-28T10:23:30.074Z,1.77
2022-09-28T10:26:08.591Z,1.17
2022-09-28T10:28:40.185Z,1.30
2022-09-28T10:31:26.394Z,1.00
2022-09-28T10:33:58.366Z,1.20
2022-09-28T10:36:25.790Z,1.30
2022-09-28T10:38:53.045Z,1.30
2022-09-28T10:41:27.031Z,1.30
2022-09-28T10:43:58.635Z,1.20
2022-09-28T10:46:26.006Z,1.80
2022-09-28T10:48:58.992Z,1.10
2022-09-28T10:51:43.019Z,1.17
2022-09-28T10:54:16.528Z,1.13
2022-09-28T10:56:48.906Z,1.13
2022-09-28T10:59:25.690Z,1.00
2022-09-28T11:01:54.809Z,1.00
2022-09-28T11:04:26.612Z,1.40
2022-09-28T11:06:55.131Z,1.10
2022-09-28T11:09:30.651Z,1.10
2022-09-28T11:12:02.079Z,1.00
2022-09-28T11:14:36.140Z,1.10
2022-09-28T11:17:16.387Z,0.83
2022-09-28T11:19:45.205Z,1.03
2022-09-28T11:22:27.525Z,1.20
2022-09-28T11:25:21.050Z,1.27
2022-09-28T11:27:59.849Z,1.10
2022-09-28T11:30:28.968Z,0.80
2022-09-28T11:33:25.446Z,1.10
2022-09-28T11:36:30.560Z,1.20
2022-09-28T11:39:03.757Z,1.13
2022-09-28T11:41:46.434Z,1.20
2022-09-28T11:44:22.209Z,1.37
2022-09-28T11:47:10.630Z,1.10
2022-09-28T11:49:39.588Z,1.00
2022-09-28T11:54:53.645Z,0.90
2022-09-28T11:57:21.947Z,0.90
2022-09-28T11:59:56.316Z,1.00
2022-09-28T12:02:25.593Z,1.10
2022-09-28T12:04:58.387Z,1.20
2022-09-28T12:07:32.558Z,1.13
2022-09-28T12:10:08.871Z,1.00
2022-09-28T12:12:39.471Z,1.40
2022-09-28T12:15:15.375Z,1.20
2022-09-28T12:17:44.737Z,1.00
2022-09-28T12:20:16.870Z,1.13
2022-09-28T12:22:46.622Z,1.10
2022-09-28T12:25:16.875Z,1.17
2022-09-28T12:27:49.070Z,1.00
2022-09-28T12:30:17.427Z,1.10
2022-09-28T12:32:50.809Z,0.80
2022-09-28T12:35:25.075Z,1.53
2022-09-28T12:38:01.875Z,1.30
2022-09-28T12:40:42.283Z,1.10
2022-09-28T12:43:26.238Z,1.03
2022-09-28T12:46:16.679Z,1.17
2022-09-28T12:49:24.381Z,1.30
2022-09-28T12:51:48.046Z,1.13
2022-09-28T12:54:24.010Z,1.20
2022-09-28T12:56:57.905Z,0.97
2022-09-28T12:59:28.747Z,1.20
2022-09-28T13:02:16.791Z,1.10
2022-09-28T13:04:53.675Z,1.20
2022-09-28T13:07:24.850Z,1.20
2022-09-28T13:09:56.691Z,1.30
2022-09-28T13:12:36.178Z,1.17
2022-09-28T13:15:10.145Z,1.20
2022-09-28T13:17:41.151Z,1.37
2022-09-28T13:20:15.581Z,1.13
2022-09-28T13:22:46.056Z,1.73
2022-09-28T13:25:15.212Z,1.20
2022-09-28T13:27:46.891Z,1.47
2022-09-28T13:30:14.966Z,1.20
2022-09-28T13:32:42.814Z,1.10
2022-09-28T13:35:13.518Z,1.23
2022-09-28T13:37:40.780Z,1.30
2022-09-28T13:40:11.507Z,1.40
2022-09-28T13:42:51.074Z,1.20
2022-09-28T13:45:29.346Z,1.17
2022-09-28T13:48:04.558Z,1.03
2022-09-28T13:50:35.052Z,1.17
2022-09-28T13:53:06.675Z,1.10
2022-09-28T13:55:38.455Z,1.30
2022-09-28T13:58:15.268Z,1.07
2022-09-28T14:00:46.770Z,1.80
2022-09-28T14:03:25.394Z,1.23
2022-09-28T14:06:09.080Z,1.10
2022-09-28T14:08:38.934Z,0.73
2022-09-28T14:11:24.927Z,2.30
2022-09-28T14:14:00.316Z,1.60
2022-09-28T14:16:28.640Z,1.00
2022-09-28T14:18:57.257Z,1.13
2022-09-28T14:21:48.158Z,1.10
2022-09-28T14:24:20.286Z,0.97
2022-09-28T14:27:11.974Z,1.00
2022-09-28T14:29:40.882Z,1.23
2022-09-28T14:32:22.499Z,1.10
2022-09-28T14:34:56.596Z,1.10
2022-09-28T14:37:26.710Z,1.50
2022-09-28T14:39:53.951Z,1.20
2022-09-28T14:42:22.530Z,1.20
2022-09-28T14:45:08.566Z,1.10
2022-09-28T14:47:37.747Z,1.20
2022-09-28T14:50:21.895Z,1.40
2022-09-28T14:52:51.574Z,1.07
2022-09-28T14:55:21.658Z,1.17
2022-09-28T14:57:52.795Z,1.00
2022-09-28T15:00:21.613Z,1.30
2022-09-28T15:02:51.287Z,1.00
2022-09-28T15:05:20.826Z,1.50
2022-09-28T15:07:48.898Z,1.17
2022-09-28T15:10:26.633Z,1.30
2022-09-28T15:12:55.074Z,1.20
2022-09-28T15:15:30.352Z,1.60
2022-09-28T15:18:03.093Z,1.73
2022-09-28T15:20:31.314Z,1.13
2022-09-28T15:22:59.489Z,1.37
2022-09-28T15:25:27.993Z,1.20
2022-09-28T15:27:56.093Z,1.40
2022-09-28T15:30:25.305Z,1.50
2022-09-28T15:32:52.582Z,1.30
2022-09-28T15:35:22.596Z,1.40
2022-09-28T15:37:50.504Z,1.30
2022-09-28T15:40:19.033Z,1.40
2022-09-28T15:42:46.528Z,1.40
2022-09-28T15:45:23.601Z,1.23
2022-09-28T15:47:51.230Z,1.50
2022-09-28T15:50:23.745Z,1.40
2022-09-28T15:52:54.491Z,1.83
2022-09-28T15:55:23.295Z,1.50
2022-09-28T15:57:51.015Z,1.53
2022-09-28T16:00:26.140Z,1.20
2022-09-28T16:03:04.142Z,1.57
2022-09-28T16:05:34.427Z,1.17
2022-09-28T16:08:02.697Z,1.50
2022-09-28T16:10:31.492Z,1.53
2022-09-28T16:13:00.333Z,1.43
2022-09-28T16:15:28.706Z,1.70
2022-09-28T16:17:56.985Z,1.63
2022-09-28T16:20:26.824Z,1.53
2022-09-28T16:22:55.761Z,1.57
2022-09-28T16:25:24.766Z,1.73
2022-09-28T16:27:52.882Z,1.87
2022-09-28T16:30:21.858Z,1.60
2022-09-28T16:32:50.981Z,1.53
2022-09-28T16:35:22.849Z,1.63
2022-09-28T16:37:55.053Z,1.70
2022-09-28T16:40:23.824Z,1.60
2022-09-28T16:42:51.542Z,1.77
2022-09-28T16:45:19.868Z,1.93
2022-09-28T16:47:47.210Z,1.80
2022-09-28T16:50:15.656Z,1.57
2022-09-28T16:52:45.621Z,1.60
2022-09-28T16:55:35.802Z,1.50
2022-09-28T16:58:01.606Z,1.30
2022-09-28T17:00:28.910Z,1.70
2022-09-28T17:02:56.397Z,1.57
2022-09-28T17:05:23.655Z,1.40
2022-09-28T17:07:55.916Z,1.90
2022-09-28T17:10:24.787Z,1.37
2022-09-28T17:12:51.983Z,1.50
2022-09-28T17:15:20.542Z,1.80
2022-09-28T17:17:47.787Z,1.23
2022-09-28T17:20:19.058Z,1.40
2022-09-28T17:22:46.331Z,1.50
2022-09-28T17:25:13.709Z,1.10
2022-09-28T17:27:42.580Z,1.50
2022-09-28T17:30:10.667Z,1.57
2022-09-28T17:32:39.307Z,1.60
2022-09-28T17:35:23.701Z,1.40
2022-09-28T17:37:52.116Z,1.80
2022-09-28T17:40:21.139Z,1.70
2022-09-28T17:42:48.379Z,1.90
2022-09-28T17:45:15.831Z,1.63
2022-09-28T17:47:44.611Z,1.73
2022-09-28T17:50:19.726Z,1.40
2022-09-28T17:52:46.960Z,2.13
2022-09-28T17:55:14.276Z,1.40
2022-09-28T17:57:41.542Z,1.60
2022-09-28T18:00:10.087Z,2.10
2022-09-28T18:02:37.332Z,1.33
2022-09-28T18:05:06.148Z,1.97
2022-09-28T18:07:33.354Z,3.83
2022-09-28T18:10:00.570Z,2.10
2022-09-28T18:12:27.767Z,2.00
2022-09-28T18:14:55.006Z,1.87
2022-09-28T18:17:22.195Z,1.83
2022-09-28T18:19:49.439Z,1.97
2022-09-28T18:22:17.984Z,1.80
2022-09-28T18:24:45.274Z,1.97
2022-09-28T18:27:12.454Z,2.20
2022-09-28T18:29:39.675Z,2.63
2022-09-28T18:32:07.096Z,2.40
2022-09-28T18:34:36.124Z,3.10
2022-09-28T18:37:03.464Z,2.60
2022-09-28T18:39:32.197Z,3.57
2022-09-28T18:41:59.432Z,2.83
2022-09-28T18:44:26.911Z,2.93
2022-09-28T18:46:54.114Z,3.13
2022-09-28T18:49:21.548Z,3.63
2022-09-28T18:51:48.778Z,3.70
2022-09-28T18:54:16.286Z,3.17
2022-09-28T18:56:45.219Z,3.50
2022-09-28T18:59:12.608Z,3.23
2022-09-28T19:01:40.334Z,3.60
2022-09-28T19:04:09.368Z,2.87
2022-09-28T19:06:38.554Z,3.70
2022-09-28T19:09:05.874Z,3.30
2022-09-28T19:11:33.423Z,3.93
2022-09-28T19:14:02.016Z,4.10
2022-09-28T19:16:30.222Z,4.17
2022-09-28T19:18:58.186Z,4.07
2022-09-28T19:21:25.829Z,4.20
2022-09-28T19:23:53.136Z,3.83
2022-09-28T19:26:22.103Z,3.70
2022-09-28T19:28:49.706Z,3.50
2022-09-28T19:31:18.650Z,3.50
2022-09-28T19:33:46.437Z,3.63
2022-09-28T19:36:14.999Z,3.50
2022-09-28T19:38:42.337Z,3.20
2022-09-28T19:41:10.635Z,3.17
2022-09-28T19:43:38.062Z,3.47
2022-09-28T19:46:06.200Z,3.00
2022-09-28T19:48:41.372Z,2.90
2022-09-28T19:51:08.749Z,3.33
2022-09-28T19:53:36.657Z,3.67
2022-09-28T19:56:04.337Z,3.80
2022-09-28T19:58:32.579Z,3.20
2022-09-28T20:00:59.859Z,3.83
2022-09-28T20:03:27.059Z,4.27
2022-09-28T20:05:58.883Z,4.30
2022-09-28T20:08:27.128Z,4.80
2022-09-28T20:10:55.104Z,4.13
2022-09-28T20:13:22.472Z,4.83
2022-09-28T20:15:49.778Z,4.27
2022-09-28T20:18:17.008Z,4.50
2022-09-28T20:20:44.190Z,4.60
2022-09-28T20:23:12.751Z,4.80
2022-09-28T20:25:39.951Z,4.60
2022-09-28T20:28:07.200Z,4.00
2022-09-28T20:30:34.396Z,4.07
2022-09-28T20:33:01.626Z,3.53
2022-09-28T20:35:33.115Z,3.13
2022-09-28T20:38:00.634Z,3.40
2022-09-28T20:40:29.424Z,3.00
2022-09-28T20:42:56.639Z,3.00
2022-09-28T20:45:23.860Z,3.37
2022-09-28T20:47:51.052Z,3.37
2022-09-28T20:50:18.252Z,3.70
2022-09-28T20:52:45.491Z,3.23
2022-09-28T20:55:12.746Z,3.10
2022-09-28T20:57:41.257Z,2.70
2022-09-28T21:00:09.183Z,3.07
2022-09-28T21:02:36.573Z,3.03
2022-09-28T21:05:04.131Z,2.83
2022-09-28T21:07:34.949Z,3.20
2022-09-28T21:10:02.171Z,3.07
2022-09-28T21:12:29.376Z,2.83
2022-09-28T21:15:01.157Z,2.73
2022-09-28T21:17:32.761Z,3.33
2022-09-28T21:20:01.378Z,2.90
2022-09-28T21:22:40.739Z,2.90
2022-09-28T21:25:08.262Z,2.87
2022-09-28T21:27:35.476Z,3.00
2022-09-28T21:30:04.365Z,2.87
2022-09-28T21:32:31.695Z,2.83
2022-09-28T21:34:58.866Z,2.40
2022-09-28T21:37:26.083Z,3.17
2022-09-28T21:39:53.389Z,3.10
2022-09-28T21:42:20.647Z,2.90
2022-09-28T21:44:47.895Z,3.13
2022-09-28T21:47:16.422Z,3.13
2022-09-28T21:49:43.600Z,2.83
2022-09-28T21:52:10.850Z,3.13
2022-09-28T21:54:38.026Z,2.97
2022-09-28T21:57:05.289Z,2.93
2022-09-28T21:59:32.463Z,2.60
2022-09-28T22:01:59.727Z,3.37
2022-09-28T22:04:28.326Z,2.87
2022-09-28T22:06:55.545Z,2.80
2022-09-28T22:09:22.737Z,2.70
2022-09-28T22:11:50.025Z,2.67
2022-09-28T22:14:17.279Z,3.00
2022-09-28T22:16:44.607Z,2.60
2022-09-28T22:19:12.346Z,2.97
2022-09-28T22:21:41.071Z,2.77
2022-09-28T22:24:08.403Z,2.80
2022-09-28T22:26:36.581Z,2.80
2022-09-28T22:29:05.093Z,2.80
2022-09-28T22:31:33.202Z,2.80
2022-09-28T22:34:00.495Z,2.60
2022-09-28T22:36:27.988Z,2.60
2022-09-28T22:38:56.826Z,2.60
2022-09-28T22:41:24.242Z,2.33
2022-09-28T22:43:52.358Z,2.80
2022-09-28T22:46:20.764Z,2.87
2022-09-28T22:48:48.722Z,2.20
2022-09-28T22:51:15.939Z,2.17
2022-09-28T22:53:43.234Z,2.40
2022-09-28T22:56:15.941Z,2.23
2022-09-28T22:58:45.579Z,2.47
2022-09-28T23:01:13.854Z,2.37
2022-09-28T23:03:41.126Z,2.60
2022-09-28T23:06:08.854Z,2.63
2022-09-28T23:08:36.543Z,2.30
2022-09-28T23:11:03.855Z,2.77
2022-09-28T23:13:32.368Z,2.13
2022-09-28T23:16:00.616Z,2.80
2022-09-28T23:18:28.838Z,2.30
2022-09-28T23:20:56.401Z,2.87
2022-09-28T23:23:24.351Z,2.73
2022-09-28T23:25:51.933Z,2.13
2022-09-28T23:28:19.601Z,2.17
2022-09-28T23:30:48.513Z,2.43
2022-09-28T23:33:16.274Z,2.40
2022-09-28T23:35:43.781Z,2.80
2022-09-28T23:38:11.185Z,2.57
2022-09-28T23:40:38.429Z,2.30
2022-09-28T23:43:05.755Z,2.30
2022-09-28T23:45:32.978Z,2.60
2022-09-28T23:48:01.659Z,2.30
2022-09-28T23:50:28.853Z,1.83
2022-09-28T23:52:56.231Z,2.40
2022-09-28T23:55:23.439Z,2.50
2022-09-28T23:57:50.646Z,2.27
